createdAt,value
2018-06-25T09:43:10.195Z,26.47
2018-06-25T09:44:09.956Z,26.7
2018-06-25T09:45:10.186Z,26.77
2018-06-25T09:46:09.936Z,26.99
2018-06-25T09:47:10.359Z,26.99
2018-06-25T09:48:09.948Z,27.02
2018-06-25T09:49:09.977Z,27.03
2018-06-25T09:50:10.225Z,27.09
2018-06-25T09:51:09.957Z,27.17
2018-06-25T09:52:09.960Z,27.22
2018-06-25T09:53:09.967Z,27.21
2018-06-25T09:54:10.224Z,27.22
2018-06-25T09:55:10.515Z,27.17
2018-06-25T09:56:09.983Z,27.14
2018-06-25T09:57:09.981Z,27.14
2018-06-25T09:58:10.055Z,27.09
2018-06-25T09:59:09.994Z,27.09
2018-06-25T10:00:10.016Z,27.1
2018-06-25T10:01:10.254Z,27
2018-06-25T10:02:10.272Z,26.92
2018-06-25T10:03:10.022Z,26.77
2018-06-25T10:04:10.018Z,26.82
2018-06-25T10:05:10.293Z,26.66
2018-06-25T10:06:10.275Z,26.58
2018-06-25T10:07:10.274Z,26.5
2018-06-25T10:08:10.061Z,26.51
2018-06-25T10:09:10.302Z,26.44
2018-06-25T10:10:10.292Z,26.39
2018-06-25T10:11:10.073Z,26.37
2018-06-25T10:12:10.043Z,26.51
2018-06-25T10:13:10.319Z,26.51
2018-06-25T10:14:10.059Z,26.5
2018-06-25T10:15:09.803Z,26.62
2018-06-25T10:16:10.311Z,26.54
2018-06-25T10:17:10.314Z,26.67
2018-06-25T10:18:10.089Z,26.8
2018-06-25T10:19:10.332Z,26.82
2018-06-25T10:20:10.117Z,26.77
2018-06-25T10:21:10.382Z,26.84
2018-06-25T10:22:10.338Z,26.8
2018-06-25T10:23:10.337Z,26.8
2018-06-25T10:24:10.352Z,26.84
2018-06-25T10:25:10.086Z,26.84
2018-06-25T10:26:09.852Z,26.73
2018-06-25T10:27:10.347Z,26.65
2018-06-25T10:28:10.431Z,26.57
2018-06-25T10:29:10.354Z,26.3
2018-06-25T10:30:10.105Z,26.2
2018-06-25T10:31:10.112Z,26.07
2018-06-25T10:32:10.117Z,25.94
2018-06-25T10:33:10.115Z,25.99
2018-06-25T10:34:10.367Z,25.98
2018-06-25T10:35:10.387Z,25.85
2018-06-25T10:36:10.125Z,25.82
2018-06-25T10:37:10.380Z,25.7
2018-06-25T10:38:09.881Z,25.65
2018-06-25T10:39:10.392Z,25.64
2018-06-25T10:40:10.394Z,25.6
2018-06-25T10:41:10.601Z,25.6
2018-06-25T10:42:10.346Z,25.73
2018-06-25T10:43:10.142Z,25.8
2018-06-25T10:44:10.403Z,25.8
2018-06-25T10:45:10.440Z,25.83
2018-06-25T10:46:10.429Z,25.73
2018-06-25T10:47:10.157Z,25.73
2018-06-25T10:48:10.412Z,25.76
2018-06-25T10:49:10.162Z,25.75
2018-06-25T10:50:10.440Z,25.87
2018-06-25T10:51:10.166Z,25.82
2018-06-25T10:52:10.419Z,25.7
2018-06-25T10:53:10.427Z,25.67
2018-06-25T10:54:10.426Z,25.77
2018-06-25T10:55:10.198Z,25.62
2018-06-25T10:56:10.435Z,25.58
2018-06-25T10:57:10.180Z,25.55
2018-06-25T10:58:10.277Z,25.45
2018-06-25T10:59:10.451Z,25.5
2018-06-25T11:00:11.647Z,25.4
2018-06-25T11:01:10.754Z,25.32
2018-06-25T11:02:10.453Z,25.35
2018-06-25T11:03:10.447Z,25.42
2018-06-25T11:04:10.457Z,25.54
2018-06-25T11:05:10.200Z,25.67
2018-06-25T11:06:10.469Z,25.82
2018-06-25T11:07:10.436Z,26.02
2018-06-25T11:08:10.471Z,26.06
2018-06-25T11:09:10.475Z,26.06
2018-06-25T11:10:10.229Z,25.9
2018-06-25T11:11:10.492Z,25.88
2018-06-25T11:12:10.234Z,25.58
2018-06-25T11:13:10.360Z,25.52
2018-06-25T11:14:10.513Z,25.51
2018-06-25T11:15:10.223Z,25.46
2018-06-25T11:16:10.478Z,25.5
2018-06-25T11:17:10.486Z,25.47
2018-06-25T11:18:10.503Z,25.47
2018-06-25T11:19:10.518Z,25.46
2018-06-25T11:20:10.269Z,25.18
2018-06-25T11:21:10.491Z,25.2
2018-06-25T11:22:10.238Z,24.95
2018-06-25T11:23:10.517Z,24.81
2018-06-25T11:24:10.522Z,24.77
2018-06-25T11:25:10.498Z,24.65
2018-06-25T11:26:10.251Z,24.5
2018-06-25T11:27:11.809Z,24.55
2018-06-25T11:28:10.502Z,24.55
2018-06-25T11:29:10.257Z,24.47
2018-06-25T11:30:10.508Z,24.43
2018-06-25T11:31:10.267Z,24.49
2018-06-25T11:32:10.515Z,24.35
2018-06-25T11:33:10.524Z,24.32
2018-06-25T11:34:10.262Z,24.32
2018-06-25T11:35:10.535Z,24.27
2018-06-25T11:36:10.519Z,24.31
2018-06-25T11:37:10.521Z,24.32
2018-06-25T11:38:10.587Z,24.32
2018-06-25T11:39:10.296Z,24.27
2018-06-25T11:40:10.294Z,24.2
2018-06-25T11:41:10.530Z,24.16
2018-06-25T11:42:10.549Z,24.1
2018-06-25T11:43:10.579Z,24.06
2018-06-25T11:44:10.277Z,24.06
2018-06-25T11:45:10.560Z,24.03
2018-06-25T11:46:10.278Z,24.05
2018-06-25T11:47:10.277Z,24.03
2018-06-25T11:48:10.527Z,24.1
2018-06-25T11:49:10.567Z,24.1
2018-06-25T11:50:10.537Z,24.2
2018-06-25T11:51:10.563Z,24.28
2018-06-25T11:52:10.551Z,24.25
2018-06-25T11:53:10.566Z,24.31
2018-06-25T11:54:10.028Z,24.34
2018-06-25T11:55:10.572Z,24.32
2018-06-25T11:56:10.281Z,24.34
2018-06-25T11:57:10.542Z,24.31
2018-06-25T11:58:10.030Z,24.28
2018-06-25T11:59:10.554Z,24.22
2018-06-25T12:00:10.474Z,24.21
2018-06-25T12:01:10.290Z,24.25
2018-06-25T12:02:10.733Z,24.2
2018-06-25T12:03:10.841Z,24.16
2018-06-25T12:04:10.293Z,24.12
2018-06-25T12:05:10.291Z,24.15
2018-06-25T12:06:10.300Z,24.18
2018-06-25T12:07:10.557Z,24.18
2018-06-25T12:08:10.499Z,24.12
2018-06-25T12:09:10.323Z,24.08
2018-06-25T12:10:10.546Z,23.95
2018-06-25T12:11:10.557Z,23.93
2018-06-25T12:12:10.860Z,23.83
2018-06-25T12:13:10.549Z,23.78
2018-06-25T12:14:10.721Z,23.8
2018-06-25T12:15:10.295Z,23.94
2018-06-25T12:16:10.576Z,24.03
2018-06-25T12:17:10.547Z,24.13
2018-06-25T12:18:10.305Z,24.34
2018-06-25T12:19:10.919Z,24.47
2018-06-25T12:20:10.918Z,24.68
2018-06-25T12:21:10.297Z,24.78
2018-06-25T12:22:10.551Z,24.87
2018-06-25T12:23:10.923Z,24.8
2018-06-25T12:24:10.549Z,24.88
2018-06-25T12:25:10.303Z,24.91
2018-06-25T12:26:10.553Z,24.84
2018-06-25T12:27:10.571Z,24.93
2018-06-25T12:28:10.556Z,25.15
2018-06-25T12:29:10.308Z,25.28
2018-06-25T12:30:10.132Z,25.35
2018-06-25T12:31:10.576Z,25.54
2018-06-25T12:32:10.578Z,25.69
2018-06-25T12:33:10.558Z,25.87
2018-06-25T12:34:10.598Z,26.05
2018-06-25T12:35:10.762Z,26.17
2018-06-25T12:36:10.342Z,26.32
2018-06-25T12:37:10.333Z,26.39
2018-06-25T12:38:10.585Z,26.54
2018-06-25T12:39:10.324Z,26.65
2018-06-25T12:40:10.325Z,26.69
2018-06-25T12:41:10.575Z,26.81
2018-06-25T12:42:10.348Z,26.89
2018-06-25T12:43:10.736Z,26.89
2018-06-25T12:44:10.396Z,27.02
2018-06-25T12:45:10.650Z,27.03
2018-06-25T12:46:10.117Z,27.24
2018-06-25T12:47:10.642Z,27.41
2018-06-25T12:48:10.610Z,27.47
2018-06-25T12:49:10.638Z,27.62
2018-06-25T12:50:10.661Z,27.65
2018-06-25T12:51:10.625Z,27.67
2018-06-25T12:52:10.666Z,27.67
2018-06-25T12:53:10.641Z,27.7
2018-06-25T12:54:10.405Z,27.88
2018-06-25T12:55:10.392Z,27.84
2018-06-25T12:56:10.624Z,27.84
2018-06-25T12:57:10.970Z,27.77
2018-06-25T12:58:10.638Z,27.55
2018-06-25T12:59:10.700Z,27.49
2018-06-25T13:00:10.646Z,27.46
2018-06-25T13:01:10.623Z,27.47
2018-06-25T13:02:10.676Z,27.44
2018-06-25T13:03:10.464Z,27.44
2018-06-25T13:04:10.761Z,27.47
2018-06-25T13:05:10.463Z,27.25
2018-06-25T13:06:10.751Z,27.25
2018-06-25T13:07:10.899Z,27.14
2018-06-25T13:08:10.482Z,27.12
2018-06-25T13:09:11.021Z,27.13
2018-06-25T13:10:10.919Z,27
2018-06-25T13:11:10.679Z,27
2018-06-25T13:12:10.482Z,26.97
2018-06-25T13:13:10.780Z,26.89
2018-06-25T13:14:10.456Z,26.88
2018-06-25T13:15:10.439Z,26.73
2018-06-25T13:16:10.445Z,26.82
2018-06-25T13:17:10.502Z,26.87
2018-06-25T13:18:10.785Z,26.85
2018-06-25T13:19:10.472Z,26.95
2018-06-25T13:20:10.739Z,27.03
2018-06-25T13:21:10.730Z,27.31
2018-06-25T13:22:10.543Z,27.43
2018-06-25T13:23:10.738Z,27.63
2018-06-25T13:24:10.466Z,27.74
2018-06-25T13:25:10.537Z,27.77
2018-06-25T13:26:10.540Z,27.84
2018-06-25T13:27:10.790Z,27.92
2018-06-25T13:28:10.551Z,28.02
2018-06-25T13:29:10.732Z,28.12
2018-06-25T13:30:10.806Z,28.03
2018-06-25T13:31:10.802Z,28.09
2018-06-25T13:32:10.564Z,28.12
2018-06-25T13:33:10.530Z,28.18
2018-06-25T13:34:10.546Z,28.24
2018-06-25T13:35:10.777Z,28.21
2018-06-25T13:36:10.568Z,28.18
2018-06-25T13:37:10.608Z,28.24
2018-06-25T13:38:11.046Z,28.17
2018-06-25T13:39:10.947Z,28.18
2018-06-25T13:40:10.830Z,28.06
2018-06-25T13:41:10.538Z,28.12
2018-06-25T13:42:10.839Z,28.06
2018-06-25T13:43:10.879Z,28.09
2018-06-25T13:44:10.800Z,28
2018-06-25T13:45:10.576Z,27.82
2018-06-25T13:46:10.622Z,27.57
2018-06-25T13:47:10.898Z,27.41
2018-06-25T13:48:10.925Z,27.29
2018-06-25T13:49:10.934Z,27.14
2018-06-25T13:50:10.932Z,27.1
2018-06-25T13:51:10.621Z,27.03
2018-06-25T13:52:10.889Z,26.99
2018-06-25T13:53:10.912Z,26.95
2018-06-25T13:54:10.839Z,27.02
2018-06-25T13:55:10.604Z,26.97
2018-06-25T13:56:10.573Z,27
2018-06-25T13:57:10.330Z,27.06
2018-06-25T13:58:10.868Z,27.12
2018-06-25T13:59:10.840Z,27.09
2018-06-25T14:00:10.889Z,27.17
2018-06-25T14:01:10.912Z,27.17
2018-06-25T14:02:10.883Z,27.28
2018-06-25T14:03:10.884Z,27.32
2018-06-25T14:04:10.640Z,27.25
2018-06-25T14:05:10.619Z,27.28
2018-06-25T14:06:10.633Z,27.18
2018-06-25T14:07:10.897Z,27.29
2018-06-25T14:08:10.405Z,27.28
2018-06-25T14:09:10.939Z,27.28
2018-06-25T14:10:10.908Z,27.4
2018-06-25T14:11:10.628Z,27.46
2018-06-25T14:12:10.877Z,27.57
2018-06-25T14:13:10.626Z,27.6
2018-06-25T14:14:10.884Z,27.6
2018-06-25T14:15:10.890Z,27.62
2018-06-25T14:16:10.888Z,27.6
2018-06-25T14:17:11.266Z,27.59
2018-06-25T14:18:10.897Z,27.67
2018-06-25T14:19:10.652Z,27.59
2018-06-25T14:20:10.908Z,27.69
2018-06-25T14:21:10.671Z,27.7
2018-06-25T14:22:10.653Z,27.78
2018-06-25T14:23:10.907Z,27.69
2018-06-25T14:24:10.663Z,27.81
2018-06-25T14:25:10.912Z,27.74
2018-06-25T14:26:10.926Z,27.72
2018-06-25T14:27:10.421Z,27.79
2018-06-25T14:28:11.059Z,27.94
2018-06-25T14:29:10.932Z,28.09
2018-06-25T14:30:10.951Z,28.04
2018-06-25T14:31:10.957Z,28.14
2018-06-25T14:32:10.715Z,28.09
2018-06-25T14:33:10.960Z,28.19
2018-06-25T14:34:10.968Z,28.31
2018-06-25T14:35:10.699Z,28.3
2018-06-25T14:36:10.962Z,28.24
2018-06-25T14:37:10.961Z,28.21
2018-06-25T14:38:10.962Z,28.24
2018-06-25T14:39:10.465Z,28.4
2018-06-25T14:40:11.245Z,28.36
2018-06-25T14:41:10.979Z,28.48
2018-06-25T14:42:10.978Z,28.54
2018-06-25T14:43:10.755Z,28.48
2018-06-25T14:44:10.997Z,28.49
2018-06-25T14:45:11.108Z,28.43
2018-06-25T14:46:10.778Z,28.58
2018-06-25T14:47:11.012Z,28.49
2018-06-25T14:48:11.037Z,28.52
2018-06-25T14:49:11.018Z,28.56
2018-06-25T14:50:10.771Z,28.58
2018-06-25T14:51:10.509Z,28.56
2018-06-25T14:52:10.542Z,28.67
2018-06-25T14:53:11.053Z,28.76
2018-06-25T14:54:10.774Z,28.78
2018-06-25T14:55:11.048Z,28.9
2018-06-25T14:56:10.790Z,28.92
2018-06-25T14:57:11.063Z,29.12
2018-06-25T14:58:11.049Z,29.21
2018-06-25T14:59:11.135Z,29.3
2018-06-25T15:00:11.089Z,29.31
2018-06-25T15:01:11.076Z,29.41
2018-06-25T15:02:10.824Z,29.46
2018-06-25T15:03:11.075Z,29.43
2018-06-25T15:04:11.070Z,29.36
2018-06-25T15:05:11.144Z,29.26
2018-06-25T15:06:11.080Z,29.3
2018-06-25T15:07:11.093Z,29.33
2018-06-25T15:08:11.099Z,29.19
2018-06-25T15:09:11.121Z,29.16
2018-06-25T15:10:11.101Z,29.04
2018-06-25T15:11:11.145Z,28.85
2018-06-25T15:12:10.617Z,28.67
2018-06-25T15:13:11.257Z,28.46
2018-06-25T15:14:10.868Z,28.4
2018-06-25T15:15:11.119Z,28.44
2018-06-25T15:16:10.902Z,28.43
2018-06-25T15:17:11.155Z,28.46
2018-06-25T15:18:10.632Z,28.46
2018-06-25T15:19:11.138Z,28.49
2018-06-25T15:20:11.055Z,28.52
2018-06-25T15:21:11.150Z,28.64
2018-06-25T15:22:11.151Z,28.71
2018-06-25T15:23:11.168Z,28.81
2018-06-25T15:24:10.929Z,28.78
2018-06-25T15:25:11.203Z,28.78
2018-06-25T15:26:11.044Z,28.76
2018-06-25T15:27:10.924Z,28.74
2018-06-25T15:28:10.925Z,28.73
2018-06-25T15:29:10.959Z,28.67
2018-06-25T15:30:11.198Z,28.55
2018-06-25T15:31:10.940Z,28.51
2018-06-25T15:32:11.194Z,28.54
2018-06-25T15:33:10.949Z,28.59
2018-06-25T15:34:10.740Z,28.44
2018-06-25T15:35:11.221Z,28.44
2018-06-25T15:36:11.245Z,28.41
2018-06-25T15:37:11.213Z,28.41
2018-06-25T15:38:11.079Z,28.4
2018-06-25T15:39:10.977Z,28.24
2018-06-25T15:40:11.225Z,28.19
2018-06-25T15:41:11.238Z,28.12
2018-06-25T15:42:10.987Z,28.06
2018-06-25T15:43:11.240Z,28.11
2018-06-25T15:44:11.000Z,28.09
2018-06-25T15:45:11.252Z,28.14
2018-06-25T15:46:11.264Z,28
2018-06-25T15:47:11.253Z,28.04
2018-06-25T15:48:10.807Z,28.03
2018-06-25T15:49:11.020Z,28
2018-06-25T15:50:11.274Z,28
2018-06-25T15:51:11.020Z,27.93
2018-06-25T15:52:11.277Z,27.84
2018-06-25T15:53:11.280Z,27.75
2018-06-25T15:54:11.030Z,27.74
2018-06-25T15:55:11.027Z,27.81
2018-06-25T15:56:11.294Z,27.79
2018-06-25T15:57:11.293Z,27.78
2018-06-25T15:58:11.310Z,27.75
2018-06-25T15:59:11.296Z,27.6
2018-06-25T16:00:11.220Z,27.44
2018-06-25T16:01:11.313Z,27.29
2018-06-25T16:02:11.309Z,27.17
2018-06-25T16:03:11.310Z,27.17
2018-06-25T16:04:11.312Z,27.03
2018-06-25T16:05:11.315Z,27.04
2018-06-25T16:06:11.077Z,27.1
2018-06-25T16:07:11.324Z,27.17
2018-06-25T16:08:11.370Z,27.03
2018-06-25T16:09:11.073Z,27.07
2018-06-25T16:10:11.329Z,27
2018-06-25T16:11:11.330Z,26.95
2018-06-25T16:12:11.336Z,26.92
2018-06-25T16:13:11.371Z,26.84
2018-06-25T16:14:11.104Z,26.8
2018-06-25T16:15:11.093Z,26.58
2018-06-25T16:16:11.348Z,26.54
2018-06-25T16:17:11.102Z,26.32
2018-06-25T16:18:11.099Z,26.26
2018-06-25T16:19:11.103Z,26.09
2018-06-25T16:20:11.212Z,25.91
2018-06-25T16:21:11.361Z,25.88
2018-06-25T16:22:11.365Z,25.77
2018-06-25T16:23:11.112Z,25.75
2018-06-25T16:24:11.377Z,25.7
2018-06-25T16:25:11.378Z,25.61
2018-06-25T16:26:11.116Z,25.64
2018-06-25T16:27:11.389Z,25.61
2018-06-25T16:28:11.368Z,25.4
2018-06-25T16:29:11.374Z,25.32
2018-06-25T16:30:11.127Z,25.38
2018-06-25T16:31:11.389Z,25.2
2018-06-25T16:32:11.130Z,25.13
2018-06-25T16:33:11.124Z,25.03
2018-06-25T16:34:11.224Z,24.93
2018-06-25T16:35:11.399Z,24.84
2018-06-25T16:36:11.384Z,24.68
2018-06-25T16:37:11.384Z,24.65
2018-06-25T16:38:11.142Z,24.57
2018-06-25T16:39:11.431Z,24.55
2018-06-25T16:40:11.404Z,24.46
2018-06-25T16:41:11.394Z,24.42
2018-06-25T16:42:11.133Z,24.35
2018-06-25T16:43:11.397Z,24.28
2018-06-25T16:44:11.395Z,24.2
2018-06-25T16:45:11.421Z,24.15
2018-06-25T16:46:11.394Z,24.1
2018-06-25T16:47:11.391Z,23.98
2018-06-25T16:48:11.393Z,23.93
2018-06-25T16:49:11.387Z,23.83
2018-06-25T16:50:11.396Z,23.79
2018-06-25T16:51:11.392Z,23.69
2018-06-25T16:52:11.396Z,23.66
2018-06-25T16:53:11.142Z,23.68
2018-06-25T16:54:11.133Z,23.53
2018-06-25T16:55:11.411Z,23.53
2018-06-25T16:56:10.887Z,23.48
2018-06-25T16:57:11.385Z,23.39
2018-06-25T16:58:11.385Z,23.46
2018-06-25T16:59:11.386Z,23.36
2018-06-25T17:00:11.393Z,23.32
2018-06-25T17:01:11.135Z,23.25
2018-06-25T17:02:11.134Z,23.28
2018-06-25T17:03:11.394Z,23.23
2018-06-25T17:04:11.386Z,23.23
2018-06-25T17:05:11.381Z,23.19
2018-06-25T17:06:11.396Z,23.15
2018-06-25T17:07:11.387Z,23.19
2018-06-25T17:08:11.388Z,23.05
2018-06-25T17:09:11.383Z,23.07
2018-06-25T17:10:11.140Z,23.02
2018-06-25T17:11:11.129Z,23.05
2018-06-25T17:12:11.126Z,22.94
2018-06-25T17:13:11.140Z,23
2018-06-25T17:14:11.380Z,23.04
2018-06-25T17:15:11.381Z,23.05
2018-06-25T17:16:11.123Z,23.05
2018-06-25T17:17:11.378Z,23.02
2018-06-25T17:18:11.387Z,23.02
2018-06-25T17:19:11.379Z,23
2018-06-25T17:20:11.119Z,22.97
2018-06-25T17:21:11.374Z,22.91
2018-06-25T17:22:10.877Z,23
2018-06-25T17:23:11.125Z,22.98
2018-06-25T17:24:11.371Z,22.98
2018-06-25T17:25:11.376Z,22.85
2018-06-25T17:26:11.116Z,22.9
2018-06-25T17:27:11.128Z,22.79
2018-06-25T17:28:11.112Z,22.75
2018-06-25T17:29:11.362Z,22.58
2018-06-25T17:30:11.366Z,22.61
2018-06-25T17:31:11.373Z,22.68
2018-06-25T17:32:11.361Z,22.55
2018-06-25T17:33:11.367Z,22.51
2018-06-25T17:34:11.357Z,22.46
2018-06-25T17:35:11.116Z,22.51
2018-06-25T17:36:11.131Z,22.3
2018-06-25T17:37:11.370Z,22.27
2018-06-25T17:38:10.863Z,22.25
2018-06-25T17:39:11.353Z,22.17
2018-06-25T17:40:11.353Z,22.07
2018-06-25T17:41:11.355Z,22.07
2018-06-25T17:42:11.350Z,21.83
2018-06-25T17:43:11.099Z,21.84
2018-06-25T17:44:11.103Z,21.79
2018-06-25T17:45:11.349Z,21.65
2018-06-25T17:46:11.100Z,21.62
2018-06-25T17:47:11.097Z,21.44
2018-06-25T17:48:11.347Z,21.46
2018-06-25T17:49:11.339Z,21.35
2018-06-25T17:50:11.087Z,21.35
2018-06-25T17:51:11.336Z,21.29
2018-06-25T17:52:11.081Z,21.21
2018-06-25T17:53:11.090Z,21.09
2018-06-25T17:54:11.349Z,21.16
2018-06-25T17:55:11.327Z,21.1
2018-06-25T17:56:11.075Z,21.01
2018-06-25T17:57:11.335Z,20.98
2018-06-25T17:58:11.325Z,20.98
2018-06-25T17:59:11.326Z,20.87
2018-06-25T18:00:11.335Z,20.8
2018-06-25T18:01:11.316Z,20.84
2018-06-25T18:02:11.325Z,20.82
2018-06-25T18:03:11.323Z,20.76
2018-06-25T18:04:11.313Z,20.7
2018-06-25T18:05:11.312Z,20.73
2018-06-25T18:06:11.058Z,20.59
2018-06-25T18:07:11.062Z,20.62
2018-06-25T18:08:11.301Z,20.67
2018-06-25T18:09:11.301Z,20.54
2018-06-25T18:10:11.307Z,20.51
2018-06-25T18:11:11.297Z,20.48
2018-06-25T18:12:11.296Z,20.5
2018-06-25T18:13:11.341Z,20.38
2018-06-25T18:14:11.294Z,20.39
2018-06-25T18:15:11.311Z,20.36
2018-06-25T18:16:11.296Z,20.32
2018-06-25T18:17:11.289Z,20.24
2018-06-25T18:18:11.282Z,20.23
2018-06-25T18:19:11.032Z,20.2
2018-06-25T18:20:11.025Z,20.23
2018-06-25T18:21:11.283Z,20.11
2018-06-25T18:22:11.016Z,20.23
2018-06-25T18:23:11.266Z,20.08
2018-06-25T18:24:11.266Z,20.11
2018-06-25T18:25:11.264Z,20.06
2018-06-25T18:26:11.282Z,20.02
2018-06-25T18:27:11.263Z,20.05
2018-06-25T18:28:11.301Z,20.01
2018-06-25T18:29:11.259Z,20.03
2018-06-25T18:30:11.254Z,20.05
2018-06-25T18:31:11.249Z,19.94
2018-06-25T18:32:11.245Z,20.1
2018-06-25T18:33:11.247Z,20.05
2018-06-25T18:34:11.255Z,20.05
2018-06-25T18:35:10.984Z,20.03
2018-06-25T18:36:11.244Z,20.03
2018-06-25T18:37:11.247Z,20.14
2018-06-25T18:38:10.988Z,20.05
2018-06-25T18:39:11.231Z,20.03
2018-06-25T18:40:10.970Z,20.08
2018-06-25T18:41:11.222Z,20.05
2018-06-25T18:42:10.718Z,20.06
2018-06-25T18:43:10.975Z,20.1
2018-06-25T18:44:10.958Z,20.03
2018-06-25T18:45:10.980Z,19.94
2018-06-25T18:46:11.241Z,19.96
2018-06-25T18:47:11.204Z,19.87
2018-06-25T18:48:11.223Z,19.81
2018-06-25T18:49:11.243Z,19.71
2018-06-25T18:50:10.954Z,19.68
2018-06-25T18:51:11.054Z,19.62
2018-06-25T18:52:11.194Z,19.63
2018-06-25T18:53:11.208Z,19.51
2018-06-25T18:54:11.394Z,19.48
2018-06-25T18:55:11.189Z,19.36
2018-06-25T18:56:11.195Z,19.39
2018-06-25T18:57:11.386Z,19.32
2018-06-25T18:58:11.179Z,19.29
2018-06-25T18:59:11.196Z,19.23
2018-06-25T19:00:10.669Z,19.21
2018-06-25T19:01:11.167Z,19.19
2018-06-25T19:02:10.912Z,19.06
2018-06-25T19:03:11.159Z,19.02
2018-06-25T19:04:11.206Z,19.02
2018-06-25T19:05:10.911Z,18.99
2018-06-25T19:06:11.181Z,18.9
2018-06-25T19:07:11.145Z,18.87
2018-06-25T19:08:11.147Z,18.78
2018-06-25T19:09:11.169Z,18.75
2018-06-25T19:10:10.901Z,18.67
2018-06-25T19:11:10.884Z,18.65
2018-06-25T19:12:11.337Z,18.52
2018-06-25T19:13:11.134Z,18.51
2018-06-25T19:14:11.127Z,18.5
2018-06-25T19:15:10.864Z,18.44
2018-06-25T19:16:10.872Z,18.5
2018-06-25T19:17:10.862Z,18.39
2018-06-25T19:18:10.879Z,18.36
2018-06-25T19:19:11.145Z,18.29
2018-06-25T19:20:10.848Z,18.26
2018-06-25T19:21:11.107Z,18.25
2018-06-25T19:22:10.851Z,18.21
2018-06-25T19:23:10.839Z,18.21
2018-06-25T19:24:10.582Z,18.12
2018-06-25T19:25:11.084Z,18.11
2018-06-25T19:26:10.826Z,18.02
2018-06-25T19:27:11.089Z,17.89
2018-06-25T19:28:10.819Z,17.87
2018-06-25T19:29:11.086Z,17.79
2018-06-25T19:30:11.080Z,17.79
2018-06-25T19:31:11.126Z,17.77
2018-06-25T19:32:11.089Z,17.81
2018-06-25T19:33:11.079Z,17.78
2018-06-25T19:34:10.545Z,17.71
2018-06-25T19:35:11.072Z,17.66
2018-06-25T19:36:10.792Z,17.59
2018-06-25T19:37:10.793Z,17.68
2018-06-25T19:38:10.800Z,17.59
2018-06-25T19:39:11.040Z,17.62
2018-06-25T19:40:11.051Z,17.55
2018-06-25T19:41:11.019Z,17.54
2018-06-25T19:42:10.771Z,17.4
2018-06-25T19:43:11.020Z,17.46
2018-06-25T19:44:11.029Z,17.41
2018-06-25T19:45:11.013Z,17.38
2018-06-25T19:46:11.007Z,17.38
2018-06-25T19:47:10.761Z,17.26
2018-06-25T19:48:10.504Z,17.25
2018-06-25T19:49:10.749Z,17.23
2018-06-25T19:50:10.991Z,17.14
2018-06-25T19:51:10.757Z,17.18
2018-06-25T19:52:10.993Z,17.15
2018-06-25T19:53:10.980Z,17.08
2018-06-25T19:54:10.745Z,17.08
2018-06-25T19:55:10.714Z,17.08
2018-06-25T19:56:10.964Z,17.03
2018-06-25T19:57:10.965Z,17.03
2018-06-25T19:58:10.717Z,17.03
2018-06-25T19:59:10.740Z,16.94
2018-06-25T20:00:10.979Z,16.96
2018-06-25T20:01:10.686Z,16.91
2018-06-25T20:02:10.947Z,16.85
2018-06-25T20:03:10.936Z,16.93
2018-06-25T20:04:10.746Z,16.82
2018-06-25T20:05:10.920Z,16.83
2018-06-25T20:06:10.797Z,16.86
2018-06-25T20:07:10.656Z,16.78
2018-06-25T20:08:10.986Z,16.83
2018-06-25T20:09:10.901Z,16.88
2018-06-25T20:10:10.909Z,16.78
2018-06-25T20:11:11.068Z,16.71
2018-06-25T20:12:10.384Z,16.68
2018-06-25T20:13:10.887Z,16.7
2018-06-25T20:14:10.630Z,16.73
2018-06-25T20:15:10.980Z,16.6
2018-06-25T20:16:10.881Z,16.68
2018-06-25T20:17:10.868Z,16.67
2018-06-25T20:18:10.862Z,16.53
2018-06-25T20:19:10.604Z,16.56
2018-06-25T20:20:10.890Z,16.57
2018-06-25T20:21:10.849Z,16.52
2018-06-25T20:22:11.190Z,16.49
2018-06-25T20:23:10.846Z,16.49
2018-06-25T20:24:11.271Z,16.52
2018-06-25T20:25:10.842Z,16.45
2018-06-25T20:26:11.159Z,16.39
2018-06-25T20:27:10.838Z,16.41
2018-06-25T20:28:10.837Z,16.38
2018-06-25T20:29:11.134Z,16.33
2018-06-25T20:30:10.560Z,16.25
2018-06-25T20:31:10.826Z,16.23
2018-06-25T20:32:10.825Z,16.3
2018-06-25T20:33:10.823Z,16.28
2018-06-25T20:34:10.593Z,16.25
2018-06-25T20:35:10.857Z,16.14
2018-06-25T20:36:10.940Z,16.09
2018-06-25T20:37:10.787Z,16.09
2018-06-25T20:38:10.784Z,16.12
2018-06-25T20:39:10.793Z,16.08
2018-06-25T20:40:10.761Z,16.07
2018-06-25T20:41:10.775Z,16.04
2018-06-25T20:42:10.762Z,15.96
2018-06-25T20:43:10.537Z,16.07
2018-06-25T20:44:10.736Z,16.01
2018-06-25T20:45:10.743Z,15.94
2018-06-25T20:46:10.490Z,15.94
2018-06-25T20:47:10.725Z,15.9
2018-06-25T20:48:10.749Z,15.9
2018-06-25T20:49:10.712Z,15.89
2018-06-25T20:50:10.205Z,15.8
2018-06-25T20:51:10.450Z,15.75
2018-06-25T20:52:10.444Z,15.82
2018-06-25T20:53:10.473Z,15.75
2018-06-25T20:54:10.705Z,15.76
2018-06-25T20:55:10.687Z,15.72
2018-06-25T20:56:10.433Z,15.68
2018-06-25T20:57:10.674Z,15.67
2018-06-25T20:58:10.679Z,15.57
2018-06-25T20:59:10.670Z,15.64
2018-06-25T21:00:10.662Z,15.57
2018-06-25T21:01:10.651Z,15.67
2018-06-25T21:02:10.675Z,15.65
2018-06-25T21:03:10.390Z,15.59
2018-06-25T21:04:10.400Z,15.59
2018-06-25T21:05:10.630Z,15.49
2018-06-25T21:06:10.638Z,15.54
2018-06-25T21:07:10.626Z,15.54
2018-06-25T21:08:10.618Z,15.59
2018-06-25T21:09:10.620Z,15.56
2018-06-25T21:10:10.838Z,15.47
2018-06-25T21:11:10.614Z,15.5
2018-06-25T21:12:10.598Z,15.43
2018-06-25T21:13:10.589Z,15.51
2018-06-25T21:14:10.608Z,15.41
2018-06-25T21:15:10.333Z,15.51
2018-06-25T21:16:10.578Z,15.44
2018-06-25T21:17:10.590Z,15.43
2018-06-25T21:18:10.575Z,15.43
2018-06-25T21:19:10.563Z,15.46
2018-06-25T21:20:10.304Z,15.5
2018-06-25T21:21:10.306Z,15.44
2018-06-25T21:22:10.291Z,15.38
2018-06-25T21:23:10.036Z,15.43
2018-06-25T21:24:10.534Z,15.44
2018-06-25T21:25:10.281Z,15.34
2018-06-25T21:26:10.526Z,15.36
2018-06-25T21:27:10.523Z,15.39
2018-06-25T21:28:10.522Z,15.36
2018-06-25T21:29:10.507Z,15.35
2018-06-25T21:30:10.527Z,15.31
2018-06-25T21:31:10.501Z,15.29
2018-06-25T21:32:10.505Z,15.34
2018-06-25T21:33:10.499Z,15.31
2018-06-25T21:34:10.478Z,15.27
2018-06-25T21:35:10.219Z,15.28
2018-06-25T21:36:10.799Z,15.23
2018-06-25T21:37:10.466Z,15.25
2018-06-25T21:38:10.214Z,15.27
2018-06-25T21:39:10.454Z,15.21
2018-06-25T21:40:10.463Z,15.27
2018-06-25T21:41:10.509Z,15.21
2018-06-25T21:42:10.434Z,15.17
2018-06-25T21:43:10.429Z,15.17
2018-06-25T21:44:10.437Z,15.2
2018-06-25T21:45:10.176Z,15.2
2018-06-25T21:46:10.457Z,15.16
2018-06-25T21:47:10.410Z,15.2
2018-06-25T21:48:10.152Z,15.11
2018-06-25T21:49:10.398Z,15.17
2018-06-25T21:50:10.395Z,15.2
2018-06-25T21:51:10.135Z,15.16
2018-06-25T21:52:10.135Z,15.28
2018-06-25T21:53:10.375Z,15.21
2018-06-25T21:54:10.370Z,15.2
2018-06-25T21:55:10.120Z,15.23
2018-06-25T21:56:10.374Z,15.2
2018-06-25T21:57:10.102Z,15.2
2018-06-25T21:58:10.354Z,15.19
2018-06-25T21:59:10.356Z,15.2
2018-06-25T22:00:10.340Z,15.23
2018-06-25T22:01:10.088Z,15.19
2018-06-25T22:02:10.085Z,15.21
2018-06-25T22:03:10.326Z,15.23
2018-06-25T22:04:10.327Z,15.14
2018-06-25T22:05:10.321Z,15.17
2018-06-25T22:06:10.308Z,15.14
2018-06-25T22:07:10.320Z,15.03
2018-06-25T22:08:10.044Z,15.02
2018-06-25T22:09:09.785Z,15.1
2018-06-25T22:10:10.287Z,15.02
2018-06-25T22:11:10.028Z,14.99
2018-06-25T22:12:10.026Z,14.99
2018-06-25T22:13:10.279Z,14.95
2018-06-25T22:14:10.270Z,14.88
2018-06-25T22:15:10.256Z,14.89
2018-06-25T22:16:10.269Z,14.84
2018-06-25T22:17:10.252Z,14.88
2018-06-25T22:18:10.246Z,14.84
2018-06-25T22:19:10.231Z,14.7
2018-06-25T22:20:10.237Z,14.78
2018-06-25T22:21:10.014Z,14.73
2018-06-25T22:22:09.965Z,14.64
2018-06-25T22:23:09.963Z,14.72
2018-06-25T22:24:09.956Z,14.64
2018-06-25T22:25:09.949Z,14.7
2018-06-25T22:26:09.961Z,14.65
2018-06-25T22:27:09.947Z,14.65
2018-06-25T22:28:09.680Z,14.58
2018-06-25T22:29:09.940Z,14.54
2018-06-25T22:30:09.919Z,14.52
2018-06-25T22:31:09.921Z,14.62
2018-06-25T22:32:10.163Z,14.6
2018-06-25T22:33:09.902Z,14.64
2018-06-25T22:34:10.154Z,14.55
2018-06-25T22:35:10.175Z,14.65
2018-06-25T22:36:10.145Z,14.6
2018-06-25T22:37:10.148Z,14.61
2018-06-25T22:38:09.875Z,14.62
2018-06-25T22:39:10.126Z,14.75